North Delran, New Jersey
Current Conditions -  °F | °C
As of 10:54 PM on Saturday 25 Oct 2014 (Local Time) from KPNE Reporting Station
Clear Clear  
Wind Chill: 61°   Ceiling: Unl
Heat Index: 61°   Visibility: 10mi
Dew Point: 43°   Wind: 9mph
Humidity: 52%   Direction: 240°WSW
Pressure: 29.65"   Gusts: NA
Location:  40.0192°N, 74.9489°W
Report Text: KPNE 260254Z 24008KT 10SM CLR 16/06 A2965 RMK AO2 SLP041 T01610061 58013
Loading
Personal Weather Stations






























Interactive Weather Map
Tropical Storm Tracking
New forecast layout! Learn more

10-Day Weather Forecast

Advertisements
Track Severe Weather on mobile